sensor_id;sensor_type;location;lat;lon;timestamp;P1;durP1;ratioP1;P2;durP2;ratioP2
38427;SDS011;24211;49.980;19.776;2022-07-03T00:00:51;5.93;;;3.97;;
38427;SDS011;24211;49.980;19.776;2022-07-03T00:03:18;6.10;;;3.85;;
38427;SDS011;24211;49.980;19.776;2022-07-03T00:05:47;6.55;;;4.00;;
38427;SDS011;24211;49.980;19.776;2022-07-03T00:08:14;7.25;;;3.83;;
38427;SDS011;24211;49.980;19.776;2022-07-03T00:10:41;6.30;;;3.90;;
38427;SDS011;24211;49.980;19.776;2022-07-03T00:13:09;5.68;;;3.42;;
38427;SDS011;24211;49.980;19.776;2022-07-03T00:15:36;6.45;;;3.95;;
38427;SDS011;24211;49.980;19.776;2022-07-03T00:18:03;6.60;;;3.90;;
38427;SDS011;24211;49.980;19.776;2022-07-03T00:20:33;6.57;;;3.97;;
38427;SDS011;24211;49.980;19.776;2022-07-03T00:23:10;6.13;;;3.90;;
38427;SDS011;24211;49.980;19.776;2022-07-03T00:28:10;6.55;;;4.25;;
38427;SDS011;24211;49.980;19.776;2022-07-03T00:30:38;6.18;;;3.83;;
38427;SDS011;24211;49.980;19.776;2022-07-03T00:33:07;6.78;;;4.28;;
38427;SDS011;24211;49.980;19.776;2022-07-03T00:35:35;7.55;;;4.25;;
38427;SDS011;24211;49.980;19.776;2022-07-03T00:38:05;8.18;;;4.80;;
38427;SDS011;24211;49.980;19.776;2022-07-03T00:40:33;8.48;;;4.70;;
38427;SDS011;24211;49.980;19.776;2022-07-03T00:43:01;6.57;;;4.55;;
38427;SDS011;24211;49.980;19.776;2022-07-03T00:45:33;8.10;;;4.93;;
38427;SDS011;24211;49.980;19.776;2022-07-03T00:48:02;7.15;;;4.68;;
38427;SDS011;24211;49.980;19.776;2022-07-03T00:50:34;7.93;;;5.00;;
38427;SDS011;24211;49.980;19.776;2022-07-03T00:53:03;9.15;;;5.53;;
38427;SDS011;24211;49.980;19.776;2022-07-03T00:55:33;8.65;;;5.43;;
38427;SDS011;24211;49.980;19.776;2022-07-03T00:58:03;7.50;;;4.93;;
38427;SDS011;24211;49.980;19.776;2022-07-03T01:00:32;8.98;;;5.40;;
38427;SDS011;24211;49.980;19.776;2022-07-03T01:03:08;9.40;;;5.65;;
38427;SDS011;24211;49.980;19.776;2022-07-03T01:05:44;9.30;;;5.60;;
38427;SDS011;24211;49.980;19.776;2022-07-03T01:17:05;9.40;;;5.70;;
38427;SDS011;24211;49.980;19.776;2022-07-03T01:19:45;8.98;;;6.00;;
38427;SDS011;24211;49.980;19.776;2022-07-03T01:28:10;9.13;;;5.30;;
38427;SDS011;24211;49.980;19.776;2022-07-03T01:30:50;10.00;;;6.22;;
38427;SDS011;24211;49.980;19.776;2022-07-03T01:33:27;8.85;;;5.22;;
38427;SDS011;24211;49.980;19.776;2022-07-03T01:38:36;9.75;;;5.28;;
38427;SDS011;24211;49.980;19.776;2022-07-03T01:41:07;13.23;;;8.05;;
38427;SDS011;24211;49.980;19.776;2022-07-03T01:43:44;9.87;;;5.37;;
38427;SDS011;24211;49.980;19.776;2022-07-03T01:46:16;9.30;;;5.88;;
38427;SDS011;24211;49.980;19.776;2022-07-03T01:48:45;9.48;;;5.38;;
38427;SDS011;24211;49.980;19.776;2022-07-03T01:51:15;8.57;;;5.28;;
38427;SDS011;24211;49.980;19.776;2022-07-03T01:53:45;7.30;;;5.00;;
38427;SDS011;24211;49.980;19.776;2022-07-03T01:56:15;10.35;;;5.30;;
38427;SDS011;24211;49.980;19.776;2022-07-03T01:58:45;8.23;;;4.95;;
38427;SDS011;24211;49.980;19.776;2022-07-03T02:04:04;8.32;;;4.93;;
38427;SDS011;24211;49.980;19.776;2022-07-03T02:07:03;13.90;;;7.03;;
38427;SDS011;24211;49.980;19.776;2022-07-03T02:12:34;13.65;;;7.28;;
38427;SDS011;24211;49.980;19.776;2022-07-03T02:15:18;9.85;;;6.45;;
38427;SDS011;24211;49.980;19.776;2022-07-03T02:17:55;9.10;;;5.40;;
38427;SDS011;24211;49.980;19.776;2022-07-03T02:20:26;11.98;;;7.13;;
38427;SDS011;24211;49.980;19.776;2022-07-03T02:23:03;13.60;;;8.63;;
38427;SDS011;24211;49.980;19.776;2022-07-03T02:25:36;16.33;;;9.65;;
38427;SDS011;24211;49.980;19.776;2022-07-03T02:31:18;12.82;;;8.23;;
38427;SDS011;24211;49.980;19.776;2022-07-03T02:33:54;13.10;;;8.02;;
38427;SDS011;24211;49.980;19.776;2022-07-03T02:36:27;13.60;;;8.35;;
38427;SDS011;24211;49.980;19.776;2022-07-03T02:38:56;10.73;;;7.15;;
38427;SDS011;24211;49.980;19.776;2022-07-03T02:41:27;9.00;;;6.03;;
38427;SDS011;24211;49.980;19.776;2022-07-03T02:44:25;12.45;;;8.55;;
38427;SDS011;24211;49.980;19.776;2022-07-03T02:47:11;15.40;;;9.25;;
38427;SDS011;24211;49.980;19.776;2022-07-03T02:50:03;16.00;;;9.95;;
38427;SDS011;24211;49.980;19.776;2022-07-03T02:55:18;13.50;;;8.38;;
38427;SDS011;24211;49.980;19.776;2022-07-03T03:04:29;13.20;;;8.05;;
38427;SDS011;24211;49.980;19.776;2022-07-03T03:07:08;12.15;;;7.85;;
38427;SDS011;24211;49.980;19.776;2022-07-03T03:09:42;13.83;;;8.77;;
38427;SDS011;24211;49.980;19.776;2022-07-03T03:12:13;14.63;;;9.45;;
38427;SDS011;24211;49.980;19.776;2022-07-03T03:14:42;11.63;;;7.38;;
38427;SDS011;24211;49.980;19.776;2022-07-03T03:17:17;12.13;;;7.38;;
38427;SDS011;24211;49.980;19.776;2022-07-03T03:19:51;14.32;;;8.88;;
38427;SDS011;24211;49.980;19.776;2022-07-03T03:22:30;15.68;;;9.10;;
38427;SDS011;24211;49.980;19.776;2022-07-03T03:25:28;14.30;;;8.70;;
38427;SDS011;24211;49.980;19.776;2022-07-03T03:27:58;10.30;;;6.85;;
38427;SDS011;24211;49.980;19.776;2022-07-03T03:30:26;8.75;;;5.20;;
38427;SDS011;24211;49.980;19.776;2022-07-03T03:32:54;14.70;;;8.27;;
38427;SDS011;24211;49.980;19.776;2022-07-03T03:35:21;12.23;;;7.65;;
38427;SDS011;24211;49.980;19.776;2022-07-03T03:37:48;12.90;;;7.63;;
38427;SDS011;24211;49.980;19.776;2022-07-03T03:40:16;9.52;;;5.88;;
38427;SDS011;24211;49.980;19.776;2022-07-03T03:42:44;8.82;;;5.00;;
38427;SDS011;24211;49.980;19.776;2022-07-03T03:45:11;7.53;;;4.90;;
38427;SDS011;24211;49.980;19.776;2022-07-03T03:47:39;13.27;;;7.55;;
38427;SDS011;24211;49.980;19.776;2022-07-03T03:50:06;12.27;;;8.38;;
38427;SDS011;24211;49.980;19.776;2022-07-03T03:52:34;13.05;;;8.75;;
38427;SDS011;24211;49.980;19.776;2022-07-03T03:55:02;8.25;;;5.43;;
38427;SDS011;24211;49.980;19.776;2022-07-03T03:57:29;11.65;;;7.22;;
38427;SDS011;24211;49.980;19.776;2022-07-03T03:59:56;11.82;;;7.22;;
38427;SDS011;24211;49.980;19.776;2022-07-03T04:02:24;6.38;;;4.57;;
38427;SDS011;24211;49.980;19.776;2022-07-03T04:04:51;11.15;;;7.38;;
38427;SDS011;24211;49.980;19.776;2022-07-03T04:07:18;9.02;;;5.75;;
38427;SDS011;24211;49.980;19.776;2022-07-03T04:09:45;9.75;;;5.22;;
38427;SDS011;24211;49.980;19.776;2022-07-03T04:12:13;8.40;;;4.68;;
38427;SDS011;24211;49.980;19.776;2022-07-03T04:14:40;12.05;;;7.57;;
38427;SDS011;24211;49.980;19.776;2022-07-03T04:17:07;7.47;;;5.25;;
38427;SDS011;24211;49.980;19.776;2022-07-03T04:19:35;11.10;;;7.00;;
38427;SDS011;24211;49.980;19.776;2022-07-03T04:22:02;7.95;;;4.95;;
38427;SDS011;24211;49.980;19.776;2022-07-03T04:24:35;10.32;;;6.40;;
38427;SDS011;24211;49.980;19.776;2022-07-03T04:27:03;8.13;;;6.07;;
38427;SDS011;24211;49.980;19.776;2022-07-03T04:29:31;12.73;;;7.20;;
38427;SDS011;24211;49.980;19.776;2022-07-03T04:31:59;8.43;;;5.43;;
38427;SDS011;24211;49.980;19.776;2022-07-03T04:34:26;10.95;;;5.72;;
38427;SDS011;24211;49.980;19.776;2022-07-03T04:36:53;10.38;;;7.13;;
38427;SDS011;24211;49.980;19.776;2022-07-03T04:39:21;12.18;;;7.38;;
38427;SDS011;24211;49.980;19.776;2022-07-03T04:41:48;11.38;;;6.75;;
38427;SDS011;24211;49.980;19.776;2022-07-03T04:44:15;11.20;;;7.60;;
38427;SDS011;24211;49.980;19.776;2022-07-03T04:46:42;9.02;;;5.60;;
38427;SDS011;24211;49.980;19.776;2022-07-03T04:49:09;9.95;;;6.15;;
38427;SDS011;24211;49.980;19.776;2022-07-03T04:51:36;10.75;;;6.32;;
38427;SDS011;24211;49.980;19.776;2022-07-03T04:54:04;9.15;;;4.82;;
38427;SDS011;24211;49.980;19.776;2022-07-03T04:56:31;10.85;;;7.30;;
38427;SDS011;24211;49.980;19.776;2022-07-03T04:58:58;7.40;;;4.80;;
38427;SDS011;24211;49.980;19.776;2022-07-03T05:01:26;9.82;;;6.07;;
38427;SDS011;24211;49.980;19.776;2022-07-03T05:03:53;8.70;;;5.97;;
38427;SDS011;24211;49.980;19.776;2022-07-03T05:06:20;11.63;;;6.13;;
38427;SDS011;24211;49.980;19.776;2022-07-03T05:08:47;9.35;;;6.00;;
38427;SDS011;24211;49.980;19.776;2022-07-03T05:11:15;9.75;;;6.50;;
38427;SDS011;24211;49.980;19.776;2022-07-03T05:13:42;6.88;;;3.95;;
38427;SDS011;24211;49.980;19.776;2022-07-03T05:16:09;7.43;;;4.38;;
38427;SDS011;24211;49.980;19.776;2022-07-03T05:18:36;8.93;;;4.22;;
38427;SDS011;24211;49.980;19.776;2022-07-03T05:21:03;7.35;;;4.63;;
38427;SDS011;24211;49.980;19.776;2022-07-03T05:23:30;6.50;;;4.00;;
38427;SDS011;24211;49.980;19.776;2022-07-03T05:25:58;8.82;;;5.90;;
38427;SDS011;24211;49.980;19.776;2022-07-03T05:28:26;8.63;;;5.82;;
38427;SDS011;24211;49.980;19.776;2022-07-03T05:30:53;7.90;;;5.15;;
38427;SDS011;24211;49.980;19.776;2022-07-03T05:33:20;10.23;;;6.05;;
38427;SDS011;24211;49.980;19.776;2022-07-03T05:35:47;9.45;;;5.32;;
38427;SDS011;24211;49.980;19.776;2022-07-03T05:38:15;10.13;;;5.72;;
38427;SDS011;24211;49.980;19.776;2022-07-03T05:41:05;6.78;;;3.75;;
38427;SDS011;24211;49.980;19.776;2022-07-03T05:43:32;5.20;;;3.53;;
38427;SDS011;24211;49.980;19.776;2022-07-03T05:46:00;8.63;;;5.20;;
38427;SDS011;24211;49.980;19.776;2022-07-03T05:48:27;5.97;;;3.80;;
38427;SDS011;24211;49.980;19.776;2022-07-03T05:50:54;5.30;;;3.25;;
38427;SDS011;24211;49.980;19.776;2022-07-03T05:53:22;5.75;;;3.90;;
38427;SDS011;24211;49.980;19.776;2022-07-03T05:55:49;6.65;;;4.00;;
38427;SDS011;24211;49.980;19.776;2022-07-03T05:58:17;9.23;;;5.30;;
38427;SDS011;24211;49.980;19.776;2022-07-03T06:00:44;8.07;;;4.32;;
38427;SDS011;24211;49.980;19.776;2022-07-03T06:03:11;6.15;;;4.03;;
38427;SDS011;24211;49.980;19.776;2022-07-03T06:05:39;5.30;;;3.58;;
38427;SDS011;24211;49.980;19.776;2022-07-03T06:08:06;6.28;;;3.55;;
38427;SDS011;24211;49.980;19.776;2022-07-03T06:10:33;7.22;;;4.00;;
38427;SDS011;24211;49.980;19.776;2022-07-03T06:13:01;6.45;;;3.83;;
38427;SDS011;24211;49.980;19.776;2022-07-03T06:15:28;5.18;;;3.50;;
38427;SDS011;24211;49.980;19.776;2022-07-03T06:17:55;5.40;;;3.58;;
38427;SDS011;24211;49.980;19.776;2022-07-03T06:20:23;5.60;;;3.50;;
38427;SDS011;24211;49.980;19.776;2022-07-03T06:22:50;6.30;;;3.10;;
38427;SDS011;24211;49.980;19.776;2022-07-03T06:25:17;5.88;;;3.63;;
38427;SDS011;24211;49.980;19.776;2022-07-03T06:27:44;6.10;;;3.50;;
38427;SDS011;24211;49.980;19.776;2022-07-03T06:30:11;6.70;;;3.03;;
38427;SDS011;24211;49.980;19.776;2022-07-03T06:32:39;5.35;;;3.20;;
38427;SDS011;24211;49.980;19.776;2022-07-03T06:35:07;4.10;;;2.70;;
38427;SDS011;24211;49.980;19.776;2022-07-03T06:37:34;4.28;;;2.80;;
38427;SDS011;24211;49.980;19.776;2022-07-03T06:40:02;5.55;;;3.90;;
38427;SDS011;24211;49.980;19.776;2022-07-03T06:42:30;4.68;;;2.95;;
38427;SDS011;24211;49.980;19.776;2022-07-03T06:44:57;4.55;;;3.08;;
38427;SDS011;24211;49.980;19.776;2022-07-03T06:47:24;7.25;;;3.72;;
38427;SDS011;24211;49.980;19.776;2022-07-03T06:49:51;5.20;;;3.60;;
38427;SDS011;24211;49.980;19.776;2022-07-03T06:52:20;7.15;;;3.22;;
38427;SDS011;24211;49.980;19.776;2022-07-03T06:54:47;5.18;;;2.88;;
38427;SDS011;24211;49.980;19.776;2022-07-03T06:57:14;5.28;;;3.17;;
38427;SDS011;24211;49.980;19.776;2022-07-03T06:59:42;5.78;;;4.13;;
38427;SDS011;24211;49.980;19.776;2022-07-03T07:02:11;6.65;;;3.53;;
38427;SDS011;24211;49.980;19.776;2022-07-03T07:04:39;5.80;;;3.70;;
38427;SDS011;24211;49.980;19.776;2022-07-03T07:07:06;4.03;;;2.50;;
38427;SDS011;24211;49.980;19.776;2022-07-03T07:09:33;5.03;;;3.03;;
38427;SDS011;24211;49.980;19.776;2022-07-03T07:12:01;5.50;;;2.92;;
38427;SDS011;24211;49.980;19.776;2022-07-03T07:14:28;6.13;;;3.63;;
38427;SDS011;24211;49.980;19.776;2022-07-03T07:16:55;6.40;;;3.47;;
38427;SDS011;24211;49.980;19.776;2022-07-03T07:19:24;3.88;;;2.65;;
38427;SDS011;24211;49.980;19.776;2022-07-03T07:21:51;5.95;;;3.70;;
38427;SDS011;24211;49.980;19.776;2022-07-03T07:24:18;4.68;;;3.03;;
38427;SDS011;24211;49.980;19.776;2022-07-03T07:26:45;6.45;;;4.10;;
38427;SDS011;24211;49.980;19.776;2022-07-03T07:29:12;4.80;;;2.92;;
38427;SDS011;24211;49.980;19.776;2022-07-03T07:31:39;5.10;;;3.70;;
38427;SDS011;24211;49.980;19.776;2022-07-03T07:34:08;5.70;;;4.05;;
38427;SDS011;24211;49.980;19.776;2022-07-03T07:36:35;5.78;;;3.38;;
38427;SDS011;24211;49.980;19.776;2022-07-03T07:39:02;5.38;;;4.00;;
38427;SDS011;24211;49.980;19.776;2022-07-03T07:41:30;5.78;;;3.25;;
38427;SDS011;24211;49.980;19.776;2022-07-03T07:43:57;4.47;;;2.88;;
38427;SDS011;24211;49.980;19.776;2022-07-03T07:46:26;5.28;;;3.03;;
38427;SDS011;24211;49.980;19.776;2022-07-03T07:48:54;5.15;;;3.45;;
38427;SDS011;24211;49.980;19.776;2022-07-03T07:51:21;4.07;;;2.80;;
38427;SDS011;24211;49.980;19.776;2022-07-03T07:53:48;5.03;;;3.55;;
38427;SDS011;24211;49.980;19.776;2022-07-03T07:56:17;7.15;;;3.88;;
38427;SDS011;24211;49.980;19.776;2022-07-03T07:58:44;3.63;;;2.53;;
38427;SDS011;24211;49.980;19.776;2022-07-03T08:01:11;4.70;;;3.38;;
38427;SDS011;24211;49.980;19.776;2022-07-03T08:03:57;6.15;;;3.38;;
38427;SDS011;24211;49.980;19.776;2022-07-03T08:06:43;4.20;;;2.65;;
38427;SDS011;24211;49.980;19.776;2022-07-03T08:09:10;5.38;;;3.53;;
38427;SDS011;24211;49.980;19.776;2022-07-03T08:11:37;3.97;;;2.80;;
38427;SDS011;24211;49.980;19.776;2022-07-03T08:14:05;5.28;;;2.88;;
38427;SDS011;24211;49.980;19.776;2022-07-03T08:16:34;4.45;;;2.78;;
38427;SDS011;24211;49.980;19.776;2022-07-03T08:19:02;4.20;;;3.15;;
38427;SDS011;24211;49.980;19.776;2022-07-03T08:21:29;4.28;;;2.75;;
38427;SDS011;24211;49.980;19.776;2022-07-03T08:23:57;4.63;;;3.40;;
38427;SDS011;24211;49.980;19.776;2022-07-03T08:26:24;5.60;;;4.13;;
38427;SDS011;24211;49.980;19.776;2022-07-03T08:28:55;4.13;;;2.90;;
38427;SDS011;24211;49.980;19.776;2022-07-03T08:31:22;5.57;;;3.90;;
38427;SDS011;24211;49.980;19.776;2022-07-03T08:33:49;5.13;;;3.35;;
38427;SDS011;24211;49.980;19.776;2022-07-03T08:36:16;5.82;;;4.18;;
38427;SDS011;24211;49.980;19.776;2022-07-03T08:38:44;4.80;;;3.45;;
38427;SDS011;24211;49.980;19.776;2022-07-03T08:41:11;4.00;;;2.88;;
38427;SDS011;24211;49.980;19.776;2022-07-03T08:43:42;4.53;;;3.00;;
38427;SDS011;24211;49.980;19.776;2022-07-03T08:46:11;4.80;;;3.53;;
38427;SDS011;24211;49.980;19.776;2022-07-03T08:48:41;4.90;;;2.90;;
38427;SDS011;24211;49.980;19.776;2022-07-03T08:51:10;7.03;;;3.33;;
38427;SDS011;24211;49.980;19.776;2022-07-03T08:53:38;4.97;;;3.40;;
38427;SDS011;24211;49.980;19.776;2022-07-03T08:56:06;4.95;;;3.95;;
38427;SDS011;24211;49.980;19.776;2022-07-03T08:58:35;5.80;;;3.67;;
38427;SDS011;24211;49.980;19.776;2022-07-03T09:01:04;4.75;;;3.33;;
38427;SDS011;24211;49.980;19.776;2022-07-03T09:03:33;4.70;;;3.03;;
38427;SDS011;24211;49.980;19.776;2022-07-03T09:06:00;5.68;;;2.80;;
38427;SDS011;24211;49.980;19.776;2022-07-03T09:08:28;6.80;;;3.97;;
38427;SDS011;24211;49.980;19.776;2022-07-03T09:10:58;5.10;;;3.28;;
38427;SDS011;24211;49.980;19.776;2022-07-03T09:13:26;5.05;;;3.17;;
38427;SDS011;24211;49.980;19.776;2022-07-03T09:15:53;3.92;;;2.60;;
38427;SDS011;24211;49.980;19.776;2022-07-03T09:18:40;6.10;;;2.70;;
38427;SDS011;24211;49.980;19.776;2022-07-03T09:21:10;4.07;;;2.70;;
38427;SDS011;24211;49.980;19.776;2022-07-03T09:23:41;4.40;;;2.80;;
38427;SDS011;24211;49.980;19.776;2022-07-03T09:26:15;4.10;;;2.95;;
38427;SDS011;24211;49.980;19.776;2022-07-03T09:28:51;4.80;;;3.17;;
38427;SDS011;24211;49.980;19.776;2022-07-03T09:31:23;3.97;;;2.78;;
38427;SDS011;24211;49.980;19.776;2022-07-03T09:33:57;4.38;;;2.80;;
38427;SDS011;24211;49.980;19.776;2022-07-03T09:36:48;3.58;;;2.50;;
38427;SDS011;24211;49.980;19.776;2022-07-03T09:42:04;4.22;;;2.95;;
38427;SDS011;24211;49.980;19.776;2022-07-03T09:44:35;3.90;;;2.40;;
38427;SDS011;24211;49.980;19.776;2022-07-03T09:47:20;3.95;;;2.60;;
38427;SDS011;24211;49.980;19.776;2022-07-03T09:57:38;4.30;;;2.75;;
38427;SDS011;24211;49.980;19.776;2022-07-03T10:02:59;3.95;;;2.58;;
38427;SDS011;24211;49.980;19.776;2022-07-03T10:08:13;4.05;;;2.70;;
38427;SDS011;24211;49.980;19.776;2022-07-03T10:10:45;4.45;;;2.80;;
38427;SDS011;24211;49.980;19.776;2022-07-03T10:13:15;4.60;;;2.77;;
38427;SDS011;24211;49.980;19.776;2022-07-03T10:15:43;5.22;;;2.67;;
38427;SDS011;24211;49.980;19.776;2022-07-03T10:18:11;3.72;;;2.38;;
38427;SDS011;24211;49.980;19.776;2022-07-03T10:20:41;4.05;;;2.90;;
38427;SDS011;24211;49.980;19.776;2022-07-03T10:23:16;5.32;;;2.85;;
38427;SDS011;24211;49.980;19.776;2022-07-03T10:26:12;3.67;;;2.63;;
38427;SDS011;24211;49.980;19.776;2022-07-03T10:28:40;3.33;;;2.30;;
38427;SDS011;24211;49.980;19.776;2022-07-03T10:31:08;4.28;;;2.63;;
38427;SDS011;24211;49.980;19.776;2022-07-03T10:33:35;4.63;;;2.80;;
38427;SDS011;24211;49.980;19.776;2022-07-03T10:36:04;4.05;;;2.80;;
38427;SDS011;24211;49.980;19.776;2022-07-03T10:38:39;5.53;;;2.80;;
38427;SDS011;24211;49.980;19.776;2022-07-03T10:41:16;3.53;;;2.42;;
38427;SDS011;24211;49.980;19.776;2022-07-03T10:44:13;4.57;;;2.60;;
38427;SDS011;24211;49.980;19.776;2022-07-03T10:47:01;5.35;;;2.60;;
38427;SDS011;24211;49.980;19.776;2022-07-03T10:49:33;4.05;;;2.63;;
38427;SDS011;24211;49.980;19.776;2022-07-03T10:52:02;3.50;;;2.58;;
38427;SDS011;24211;49.980;19.776;2022-07-03T10:54:31;3.92;;;2.40;;
38427;SDS011;24211;49.980;19.776;2022-07-03T11:05:17;3.95;;;2.60;;
38427;SDS011;24211;49.980;19.776;2022-07-03T11:12:55;4.82;;;2.50;;
38427;SDS011;24211;49.980;19.776;2022-07-03T11:15:31;3.60;;;2.47;;
38427;SDS011;24211;49.980;19.776;2022-07-03T11:18:15;4.40;;;2.67;;
38427;SDS011;24211;49.980;19.776;2022-07-03T11:25:59;4.90;;;2.65;;
38427;SDS011;24211;49.980;19.776;2022-07-03T11:28:49;3.92;;;2.40;;
38427;SDS011;24211;49.980;19.776;2022-07-03T11:31:21;4.13;;;2.30;;
38427;SDS011;24211;49.980;19.776;2022-07-03T11:39:01;5.68;;;2.85;;
38427;SDS011;24211;49.980;19.776;2022-07-03T11:44:02;5.50;;;3.30;;
38427;SDS011;24211;49.980;19.776;2022-07-03T11:46:33;3.78;;;2.50;;
38427;SDS011;24211;49.980;19.776;2022-07-03T11:49:11;4.25;;;2.50;;
38427;SDS011;24211;49.980;19.776;2022-07-03T11:54:31;3.70;;;2.40;;
38427;SDS011;24211;49.980;19.776;2022-07-03T11:57:16;4.53;;;2.45;;
38427;SDS011;24211;49.980;19.776;2022-07-03T11:59:44;5.10;;;2.67;;
38427;SDS011;24211;49.980;19.776;2022-07-03T12:02:11;3.08;;;2.15;;
38427;SDS011;24211;49.980;19.776;2022-07-03T12:04:38;3.45;;;2.28;;
38427;SDS011;24211;49.980;19.776;2022-07-03T12:07:07;3.20;;;2.30;;
38427;SDS011;24211;49.980;19.776;2022-07-03T12:09:35;3.50;;;2.25;;
38427;SDS011;24211;49.980;19.776;2022-07-03T12:22:25;5.63;;;2.70;;
38427;SDS011;24211;49.980;19.776;2022-07-03T12:27:32;3.20;;;2.20;;
38427;SDS011;24211;49.980;19.776;2022-07-03T12:30:04;3.55;;;2.33;;
38427;SDS011;24211;49.980;19.776;2022-07-03T12:32:34;3.38;;;2.25;;
38427;SDS011;24211;49.980;19.776;2022-07-03T12:35:03;3.30;;;2.25;;
38427;SDS011;24211;49.980;19.776;2022-07-03T12:37:32;3.45;;;2.40;;
38427;SDS011;24211;49.980;19.776;2022-07-03T12:40:11;3.45;;;2.05;;
38427;SDS011;24211;49.980;19.776;2022-07-03T12:42:45;3.30;;;2.20;;
38427;SDS011;24211;49.980;19.776;2022-07-03T12:45:19;4.00;;;2.38;;
38427;SDS011;24211;49.980;19.776;2022-07-03T12:47:56;3.03;;;2.10;;
38427;SDS011;24211;49.980;19.776;2022-07-03T12:50:48;3.40;;;2.33;;
38427;SDS011;24211;49.980;19.776;2022-07-03T12:53:25;3.72;;;2.22;;
38427;SDS011;24211;49.980;19.776;2022-07-03T12:55:54;3.45;;;2.20;;
38427;SDS011;24211;49.980;19.776;2022-07-03T12:58:35;3.50;;;2.37;;
38427;SDS011;24211;49.980;19.776;2022-07-03T13:01:32;3.25;;;2.35;;
38427;SDS011;24211;49.980;19.776;2022-07-03T13:04:01;4.00;;;2.33;;
38427;SDS011;24211;49.980;19.776;2022-07-03T13:06:28;3.38;;;2.10;;
38427;SDS011;24211;49.980;19.776;2022-07-03T13:08:56;3.30;;;2.10;;
38427;SDS011;24211;49.980;19.776;2022-07-03T13:11:30;4.13;;;3.00;;
38427;SDS011;24211;49.980;19.776;2022-07-03T13:14:02;4.03;;;2.20;;
38427;SDS011;24211;49.980;19.776;2022-07-03T13:16:42;3.33;;;2.20;;
38427;SDS011;24211;49.980;19.776;2022-07-03T13:19:13;3.88;;;2.10;;
38427;SDS011;24211;49.980;19.776;2022-07-03T13:21:44;4.70;;;2.30;;
38427;SDS011;24211;49.980;19.776;2022-07-03T13:24:13;3.40;;;2.40;;
38427;SDS011;24211;49.980;19.776;2022-07-03T13:26:42;4.45;;;2.40;;
38427;SDS011;24211;49.980;19.776;2022-07-03T13:29:18;3.78;;;2.30;;
38427;SDS011;24211;49.980;19.776;2022-07-03T13:31:47;3.25;;;2.05;;
38427;SDS011;24211;49.980;19.776;2022-07-03T13:34:17;2.92;;;2.15;;
38427;SDS011;24211;49.980;19.776;2022-07-03T13:36:45;4.30;;;2.30;;
38427;SDS011;24211;49.980;19.776;2022-07-03T13:39:12;3.22;;;2.22;;
38427;SDS011;24211;49.980;19.776;2022-07-03T13:41:39;4.30;;;2.40;;
38427;SDS011;24211;49.980;19.776;2022-07-03T13:44:07;3.20;;;2.20;;
38427;SDS011;24211;49.980;19.776;2022-07-03T13:46:35;3.13;;;2.10;;
38427;SDS011;24211;49.980;19.776;2022-07-03T13:49:02;3.20;;;2.15;;
38427;SDS011;24211;49.980;19.776;2022-07-03T13:51:29;4.18;;;2.28;;
38427;SDS011;24211;49.980;19.776;2022-07-03T13:53:57;3.83;;;2.10;;
38427;SDS011;24211;49.980;19.776;2022-07-03T13:56:24;3.00;;;2.08;;
38427;SDS011;24211;49.980;19.776;2022-07-03T13:58:51;3.22;;;2.20;;
38427;SDS011;24211;49.980;19.776;2022-07-03T14:01:19;3.42;;;2.38;;
38427;SDS011;24211;49.980;19.776;2022-07-03T14:03:48;3.58;;;2.17;;
38427;SDS011;24211;49.980;19.776;2022-07-03T14:06:16;3.80;;;2.38;;
38427;SDS011;24211;49.980;19.776;2022-07-03T14:08:43;3.55;;;2.35;;
38427;SDS011;24211;49.980;19.776;2022-07-03T14:11:10;3.58;;;2.30;;
38427;SDS011;24211;49.980;19.776;2022-07-03T14:13:38;4.43;;;2.28;;
38427;SDS011;24211;49.980;19.776;2022-07-03T14:16:05;3.65;;;2.33;;
38427;SDS011;24211;49.980;19.776;2022-07-03T14:18:32;3.55;;;2.63;;
38427;SDS011;24211;49.980;19.776;2022-07-03T14:21:00;3.95;;;2.35;;
38427;SDS011;24211;49.980;19.776;2022-07-03T14:23:27;4.35;;;2.40;;
38427;SDS011;24211;49.980;19.776;2022-07-03T14:25:56;5.38;;;2.33;;
38427;SDS011;24211;49.980;19.776;2022-07-03T14:28:24;3.47;;;2.15;;
38427;SDS011;24211;49.980;19.776;2022-07-03T14:31:16;3.10;;;2.00;;
38427;SDS011;24211;49.980;19.776;2022-07-03T14:33:44;3.17;;;2.00;;
38427;SDS011;24211;49.980;19.776;2022-07-03T14:36:12;3.70;;;2.00;;
38427;SDS011;24211;49.980;19.776;2022-07-03T14:39:00;3.58;;;2.20;;
38427;SDS011;24211;49.980;19.776;2022-07-03T14:41:28;3.35;;;2.25;;
38427;SDS011;24211;49.980;19.776;2022-07-03T14:43:55;4.75;;;2.50;;
38427;SDS011;24211;49.980;19.776;2022-07-03T14:46:22;3.38;;;2.05;;
38427;SDS011;24211;49.980;19.776;2022-07-03T14:48:50;3.30;;;2.30;;
38427;SDS011;24211;49.980;19.776;2022-07-03T14:51:19;3.10;;;2.17;;
38427;SDS011;24211;49.980;19.776;2022-07-03T14:53:47;3.53;;;2.13;;
38427;SDS011;24211;49.980;19.776;2022-07-03T14:56:17;2.78;;;2.10;;
38427;SDS011;24211;49.980;19.776;2022-07-03T14:58:46;3.30;;;2.25;;
38427;SDS011;24211;49.980;19.776;2022-07-03T15:01:16;3.00;;;2.17;;
38427;SDS011;24211;49.980;19.776;2022-07-03T15:04:01;3.30;;;2.25;;
38427;SDS011;24211;49.980;19.776;2022-07-03T15:06:36;4.15;;;2.40;;
38427;SDS011;24211;49.980;19.776;2022-07-03T15:09:03;4.75;;;2.28;;
38427;SDS011;24211;49.980;19.776;2022-07-03T15:11:39;3.75;;;2.30;;
38427;SDS011;24211;49.980;19.776;2022-07-03T15:14:39;3.60;;;2.30;;
38427;SDS011;24211;49.980;19.776;2022-07-03T15:17:12;3.03;;;2.03;;
38427;SDS011;24211;49.980;19.776;2022-07-03T15:19:41;3.30;;;2.20;;
38427;SDS011;24211;49.980;19.776;2022-07-03T15:22:16;3.03;;;2.10;;
38427;SDS011;24211;49.980;19.776;2022-07-03T15:24:47;4.05;;;2.25;;
38427;SDS011;24211;49.980;19.776;2022-07-03T15:27:18;4.30;;;2.90;;
38427;SDS011;24211;49.980;19.776;2022-07-03T15:29:50;4.05;;;2.58;;
38427;SDS011;24211;49.980;19.776;2022-07-03T15:32:19;3.80;;;2.38;;
38427;SDS011;24211;49.980;19.776;2022-07-03T15:34:46;3.45;;;2.33;;
38427;SDS011;24211;49.980;19.776;2022-07-03T15:37:19;3.30;;;2.22;;
38427;SDS011;24211;49.980;19.776;2022-07-03T15:40:03;2.92;;;2.20;;
38427;SDS011;24211;49.980;19.776;2022-07-03T15:54:13;4.90;;;2.45;;
38427;SDS011;24211;49.980;19.776;2022-07-03T15:57:24;3.50;;;2.10;;
38427;SDS011;24211;49.980;19.776;2022-07-03T16:00:14;3.28;;;2.17;;
38427;SDS011;24211;49.980;19.776;2022-07-03T16:05:39;3.45;;;2.42;;
38427;SDS011;24211;49.980;19.776;2022-07-03T16:08:07;4.90;;;2.38;;
38427;SDS011;24211;49.980;19.776;2022-07-03T16:10:38;4.07;;;2.40;;
38427;SDS011;24211;49.980;19.776;2022-07-03T16:13:07;4.05;;;2.55;;
38427;SDS011;24211;49.980;19.776;2022-07-03T16:15:39;4.22;;;2.50;;
38427;SDS011;24211;49.980;19.776;2022-07-03T16:18:11;2.90;;;2.08;;
38427;SDS011;24211;49.980;19.776;2022-07-03T16:20:39;3.17;;;2.22;;
38427;SDS011;24211;49.980;19.776;2022-07-03T16:23:07;3.92;;;2.30;;
38427;SDS011;24211;49.980;19.776;2022-07-03T16:25:37;3.42;;;2.25;;
38427;SDS011;24211;49.980;19.776;2022-07-03T16:28:07;3.67;;;2.40;;
38427;SDS011;24211;49.980;19.776;2022-07-03T16:30:46;3.53;;;2.33;;
38427;SDS011;24211;49.980;19.776;2022-07-03T16:33:22;3.60;;;2.20;;
38427;SDS011;24211;49.980;19.776;2022-07-03T16:36:31;4.15;;;2.20;;
38427;SDS011;24211;49.980;19.776;2022-07-03T16:38:57;3.22;;;2.20;;
38427;SDS011;24211;49.980;19.776;2022-07-03T16:41:37;3.60;;;2.30;;
38427;SDS011;24211;49.980;19.776;2022-07-03T16:46:41;3.17;;;2.10;;
38427;SDS011;24211;49.980;19.776;2022-07-03T16:49:12;3.58;;;2.38;;